Time;durP1;ratioP1;P1;durP2;ratioP2;P2;SDS_P1;SDS_P2;PMS_P1;PMS_P2;Temp;Humidity;BMP_temperature;BMP_pressure;BME280_temperature;BME280_humidity;BME280_pressure;Samples;Min_cycle;Max_cycle;Signal;HPM_P1;HPM_P2
2023/01/08 00:02:03;;;;;;;5.82;4.88;;;;;;;8.57;81.72;100459.41;4951577;28;20200;-72
2023/01/08 00:04:32;;;;;;;6.60;5.82;;;;;;;8.44;82.10;100437.78;4952501;28;20298;-73
2023/01/08 00:07:01;;;;;;;6.65;5.20;;;;;;;8.43;82.21;100446.91;4961312;28;20207;-72
2023/01/08 00:09:33;;;;;;;6.18;5.22;;;;;;;8.36;82.75;100437.97;4955618;28;20567;-74
2023/01/08 00:12:02;;;;;;;5.93;5.25;;;;;;;8.44;82.10;100444.00;4958237;28;20682;-73
2023/01/08 00:14:31;;;;;;;4.50;4.07;;;;;;;8.36;82.73;100430.69;4940474;29;20255;-74
2023/01/08 00:17:01;;;;;;;5.78;4.22;;;;;;;8.32;83.09;100439.38;4957958;29;20207;-71
2023/01/08 00:19:33;;;;;;;5.95;5.15;;;;;;;8.28;82.91;100433.50;4937780;29;20282;-73
2023/01/08 00:22:02;;;;;;;4.18;3.78;;;;;;;8.17;83.21;100431.38;4944033;29;20647;-72
2023/01/08 00:24:31;;;;;;;7.03;5.35;;;;;;;8.23;83.26;100434.09;4956433;28;20238;-72
2023/01/08 00:27:00;;;;;;;7.40;5.70;;;;;;;8.27;82.87;100427.31;4940426;29;20674;-74
2023/01/08 00:29:29;;;;;;;6.60;4.90;;;;;;;8.18;83.18;100420.38;4938975;29;20546;-73
2023/01/08 00:31:58;;;;;;;7.93;5.03;;;;;;;8.20;83.21;100423.72;4957247;28;20193;-73
2023/01/08 00:34:27;;;;;;;6.95;5.03;;;;;;;8.13;83.51;100419.34;4950409;29;20246;-72
2023/01/08 00:36:57;;;;;;;4.78;4.10;;;;;;;8.13;83.33;100424.72;4957282;29;20573;-72
2023/01/08 00:39:26;;;;;;;6.30;4.95;;;;;;;8.05;84.07;100417.63;4949596;29;20282;-73
2023/01/08 00:41:55;;;;;;;6.25;5.05;;;;;;;8.06;83.88;100408.50;4956887;28;20299;-71
2023/01/08 00:44:24;;;;;;;7.25;5.35;;;;;;;7.91;84.49;100393.47;4956495;28;20251;-73
2023/01/08 00:46:53;;;;;;;5.95;5.25;;;;;;;7.99;84.35;100391.44;4956819;29;20682;-73
2023/01/08 00:49:23;;;;;;;6.22;5.63;;;;;;;8.02;83.90;100396.47;4957127;29;20199;-74
2023/01/08 00:51:52;;;;;;;5.25;4.75;;;;;;;7.87;84.93;100393.03;4956489;29;20196;-72
2023/01/08 00:54:22;;;;;;;9.45;6.18;;;;;;;7.83;85.08;100391.78;4955089;28;20211;-72
2023/01/08 00:56:52;;;;;;;7.32;5.63;;;;;;;7.74;85.30;100382.19;4956293;28;20188;-73
2023/01/08 00:59:21;;;;;;;8.52;5.72;;;;;;;7.59;85.96;100384.13;4939070;29;20204;-72
2023/01/08 01:01:53;;;;;;;8.57;5.75;;;;;;;7.73;85.27;100377.81;4958711;29;20208;-72
2023/01/08 01:04:22;;;;;;;6.05;5.45;;;;;;;7.62;85.68;100378.34;4955416;28;20220;-72
2023/01/08 01:06:51;;;;;;;8.32;6.65;;;;;;;7.59;85.65;100381.44;4956323;29;20243;-72
2023/01/08 01:09:21;;;;;;;8.35;5.95;;;;;;;7.54;86.29;100382.03;4956469;29;20564;-73
2023/01/08 01:11:50;;;;;;;8.02;5.60;;;;;;;7.51;86.43;100376.19;4956507;29;20192;-73
2023/01/08 01:14:20;;;;;;;6.65;5.10;;;;;;;7.54;86.03;100382.03;4938675;28;20781;-74
2023/01/08 01:16:49;;;;;;;7.55;5.05;;;;;;;7.47;86.75;100374.91;4955994;29;20192;-73
2023/01/08 01:19:18;;;;;;;6.38;5.75;;;;;;;7.52;86.96;100375.16;4938652;29;20200;-72
2023/01/08 01:21:50;;;;;;;6.25;5.65;;;;;;;7.49;86.69;100378.25;4956387;29;20701;-71
2023/01/08 01:24:23;;;;;;;6.78;5.95;;;;;;;7.55;86.24;100374.78;4956047;28;20223;-73
2023/01/08 01:26:55;;;;;;;11.85;7.28;;;;;;;7.37;86.48;100380.63;4956271;29;20224;-71
2023/01/08 01:29:24;;;;;;;8.00;5.80;;;;;;;7.45;86.83;100387.75;4956527;29;20593;-72
2023/01/08 01:31:58;;;;;;;8.27;6.43;;;;;;;7.36;87.06;100366.31;4956295;28;20278;-72
2023/01/08 01:34:27;;;;;;;6.78;6.05;;;;;;;7.38;87.21;100369.66;4955573;28;20219;-73
2023/01/08 01:36:56;;;;;;;7.38;6.28;;;;;;;7.35;87.14;100367.38;4956317;29;20203;-72
2023/01/08 01:39:26;;;;;;;6.03;5.45;;;;;;;7.17;87.57;100358.06;4952945;29;20215;-72
2023/01/08 01:41:55;;;;;;;7.20;5.75;;;;;;;7.19;87.80;100364.94;4955708;28;20212;-73
2023/01/08 01:44:42;;;;;;;7.30;6.18;;;;;;;7.28;87.73;100371.84;4955842;28;20219;-71
2023/01/08 01:47:20;;;;;;;9.13;6.28;;;;;;;7.18;87.97;100376.72;4956559;29;20242;-73
2023/01/08 01:49:56;;;;;;;7.85;6.22;;;;;;;7.20;87.82;100377.38;4957854;29;20693;-72
2023/01/08 01:52:28;;;;;;;7.65;6.70;;;;;;;7.15;87.85;100360.16;4957282;28;20195;-72
2023/01/08 01:55:01;;;;;;;9.05;6.93;;;;;;;7.08;88.01;100360.06;4953807;28;20220;-72
2023/01/08 01:57:32;;;;;;;6.95;6.28;;;;;;;7.14;89.08;100343.16;4951585;29;20195;-73
2023/01/08 02:00:04;;;;;;;8.20;6.85;;;;;;;6.96;88.80;100342.78;4956574;29;20196;-73
2023/01/08 02:02:39;;;;;;;9.10;6.95;;;;;;;6.95;89.20;100343.81;4955761;29;20225;-73
2023/01/08 02:05:09;;;;;;;6.90;6.05;;;;;;;6.88;89.83;100342.91;4968847;28;20216;-73
2023/01/08 02:07:47;;;;;;;10.27;7.25;;;;;;;6.86;89.93;100344.97;4968925;29;20287;-74
2023/01/08 02:10:21;;;;;;;7.03;6.35;;;;;;;6.74;90.35;100335.72;4964281;29;20204;-74
2023/01/08 02:12:57;;;;;;;11.23;7.45;;;;;;;6.78;90.38;100332.44;4956323;28;20563;-74
2023/01/08 02:15:34;;;;;;;8.02;6.93;;;;;;;6.69;90.79;100336.28;4955425;28;20226;-73
2023/01/08 02:18:08;;;;;;;9.30;6.13;;;;;;;6.64;90.83;100335.19;4952158;29;20287;-73
2023/01/08 02:20:40;;;;;;;7.55;6.35;;;;;;;6.82;90.84;100325.69;4955450;29;20202;-72
2023/01/08 02:23:20;;;;;;;7.68;6.50;;;;;;;6.76;90.49;100323.75;4955549;29;20242;-73
2023/01/08 02:26:10;;;;;;;6.85;6.05;;;;;;;6.59;91.05;100308.03;4955743;29;20241;-71
2023/01/08 02:28:44;;;;;;;9.60;6.97;;;;;;;6.50;91.99;100294.75;4936431;29;20200;-73
2023/01/08 02:31:15;;;;;;;8.60;6.22;;;;;;;6.55;91.58;100286.94;4955919;29;20658;-73
2023/01/08 02:33:44;;;;;;;8.90;7.13;;;;;;;6.61;91.75;100285.34;4949272;29;20196;-73
2023/01/08 02:36:29;;;;;;;9.57;7.53;;;;;;;6.51;91.68;100288.34;4952824;29;20222;-73
2023/01/08 02:39:20;;;;;;;9.68;7.57;;;;;;;6.58;91.76;100292.97;4950549;29;20591;-73
2023/01/08 02:42:04;;;;;;;9.23;7.00;;;;;;;6.49;92.21;100297.59;4953648;28;20306;-73
2023/01/08 02:44:50;;;;;;;6.32;5.65;;;;;;;6.34;92.43;100303.00;4954382;28;20230;-72
2023/01/08 02:47:28;;;;;;;8.65;6.82;;;;;;;6.42;92.83;100284.13;4953536;29;20208;-74
2023/01/08 02:50:05;;;;;;;12.13;8.00;;;;;;;6.51;91.70;100293.72;4956368;29;20191;-72
2023/01/08 02:52:38;;;;;;;9.00;7.38;;;;;;;6.33;93.05;100285.25;4954805;29;20271;-72
2023/01/08 02:55:09;;;;;;;9.55;7.50;;;;;;;6.39;92.78;100271.03;4954049;28;20243;-72
2023/01/08 02:57:40;;;;;;;10.75;7.10;;;;;;;6.48;92.36;100272.59;4954423;29;20226;-73
2023/01/08 03:00:11;;;;;;;8.80;7.45;;;;;;;6.45;92.31;100266.75;4953971;28;20195;-72
2023/01/08 03:02:41;;;;;;;9.13;8.27;;;;;;;6.46;92.50;100269.25;4949496;29;20216;-73
2023/01/08 03:05:20;;;;;;;10.82;7.18;;;;;;;6.34;93.23;100259.22;4953376;28;20229;-74
2023/01/08 03:07:49;;;;;;;8.48;7.55;;;;;;;6.42;93.21;100257.25;4949655;29;20214;-73
2023/01/08 03:10:21;;;;;;;10.95;8.45;;;;;;;6.37;92.97;100253.44;4953752;29;20690;-72
2023/01/08 03:12:56;;;;;;;9.02;8.13;;;;;;;6.32;92.77;100245.97;4953772;29;20195;-72
2023/01/08 03:15:31;;;;;;;9.85;7.72;;;;;;;6.24;93.30;100254.16;4936213;29;20314;-72
2023/01/08 03:18:07;;;;;;;9.07;8.27;;;;;;;6.30;93.11;100256.06;4953714;29;20219;-73
2023/01/08 03:20:38;;;;;;;8.27;7.47;;;;;;;6.34;93.09;100253.84;4953747;28;20262;-72
2023/01/08 03:23:10;;;;;;;9.63;8.68;;;;;;;6.33;92.51;100258.38;4953418;29;20625;-72
2023/01/08 03:26:07;;;;;;;9.80;7.85;;;;;;;6.29;92.57;100257.09;4937500;29;20290;-73
2023/01/08 03:28:41;;;;;;;8.05;7.25;;;;;;;6.27;93.42;100253.75;4949328;29;20205;-73
2023/01/08 03:31:13;;;;;;;9.65;8.20;;;;;;;6.26;93.36;100245.88;4953924;29;20191;-72
2023/01/08 03:33:44;;;;;;;10.27;9.18;;;;;;;6.40;93.25;100256.59;4954339;29;20188;-71
2023/01/08 03:36:17;;;;;;;9.20;7.72;;;;;;;6.33;92.31;100244.94;4936556;29;20226;-72
2023/01/08 03:38:52;;;;;;;9.75;8.43;;;;;;;6.30;92.91;100241.78;4955144;28;20284;-73
2023/01/08 03:41:23;;;;;;;10.15;9.13;;;;;;;6.36;92.62;100244.56;4954881;29;20578;-73
2023/01/08 03:43:54;;;;;;;11.85;8.95;;;;;;;6.32;92.59;100232.53;4955762;29;20226;-72
2023/01/08 03:46:29;;;;;;;10.43;8.50;;;;;;;6.32;92.18;100240.59;4954985;28;20200;-73
2023/01/08 03:49:00;;;;;;;10.50;8.43;;;;;;;6.24;92.44;100232.66;4955974;29;20199;-73
2023/01/08 03:51:38;;;;;;;13.98;8.70;;;;;;;6.40;93.28;100240.47;4959970;29;20603;-72
2023/01/08 03:54:12;;;;;;;17.20;9.60;;;;;;;6.24;92.51;100239.88;4966657;28;20202;-71
2023/01/08 03:56:41;;;;;;;11.60;8.35;;;;;;;6.24;92.62;100246.09;4971222;28;20200;-71
2023/01/08 03:59:13;;;;;;;11.55;7.97;;;;;;;6.21;93.25;100248.31;4970920;28;20676;-71
2023/01/08 04:01:43;;;;;;;12.80;7.90;;;;;;;6.09;93.42;100251.50;4968378;28;20291;-72
2023/01/08 04:04:12;;;;;;;8.68;7.88;;;;;;;5.98;93.75;100248.47;4953546;29;20200;-72
2023/01/08 04:06:41;;;;;;;12.38;7.82;;;;;;;6.21;93.58;100253.69;4972357;28;20192;-72
2023/01/08 04:09:10;;;;;;;12.20;9.15;;;;;;;6.19;93.05;100240.44;4970370;29;20208;-71
2023/01/08 04:11:39;;;;;;;12.60;8.38;;;;;;;6.13;93.11;100235.81;4961915;29;20227;-71
2023/01/08 04:14:11;;;;;;;9.70;8.73;;;;;;;6.20;92.96;100244.78;4975444;28;20250;-72
2023/01/08 04:16:41;;;;;;;10.55;9.25;;;;;;;6.21;92.29;100265.25;4965865;28;20562;-73
2023/01/08 04:19:11;;;;;;;10.90;7.85;;;;;;;6.15;93.62;100236.44;4968193;28;20188;-72
2023/01/08 04:21:41;;;;;;;12.73;8.50;;;;;;;6.23;93.23;100239.03;4968336;28;20675;-73
2023/01/08 04:24:10;;;;;;;11.35;8.93;;;;;;;6.14;93.10;100247.41;4974866;28;20232;-72
2023/01/08 04:26:40;;;;;;;11.55;8.75;;;;;;;6.09;93.72;100237.22;4962305;28;20222;-73
2023/01/08 04:29:09;;;;;;;9.30;8.35;;;;;;;6.16;92.88;100240.81;4951068;29;20208;-72
2023/01/08 04:31:38;;;;;;;9.38;8.40;;;;;;;6.23;92.09;100251.66;4955818;29;20192;-72
2023/01/08 04:34:08;;;;;;;9.02;8.13;;;;;;;6.00;92.78;100235.69;4977893;28;20255;-73
2023/01/08 04:36:37;;;;;;;10.60;9.52;;;;;;;6.05;93.45;100238.63;4970718;29;20188;-73
2023/01/08 04:39:07;;;;;;;10.32;9.20;;;;;;;6.09;93.68;100218.44;4962725;28;20207;-73
2023/01/08 04:41:36;;;;;;;11.02;8.20;;;;;;;5.97;93.43;100219.94;4944937;29;20204;-73
2023/01/08 04:44:06;;;;;;;16.15;8.43;;;;;;;6.04;93.42;100205.56;4961043;28;20414;-72
2023/01/08 04:46:35;;;;;;;8.80;7.50;;;;;;;6.04;93.16;100199.38;4949292;29;20605;-73
2023/01/08 04:49:04;;;;;;;8.75;7.55;;;;;;;5.99;93.47;100204.47;4941335;29;20737;-72
2023/01/08 04:51:35;;;;;;;10.95;9.82;;;;;;;6.06;93.13;100202.69;4940680;29;20192;-72
2023/01/08 04:57:26;;;;;;;11.98;9.57;;;;;;;6.24;92.48;100199.59;4969483;28;20231;-74
2023/01/08 04:59:55;;;;;;;11.48;10.27;;;;;;;6.21;92.63;100206.16;4940430;29;20471;-72
2023/01/08 05:02:25;;;;;;;11.63;8.70;;;;;;;6.08;92.44;100206.00;4957096;29;20480;-72
2023/01/08 05:04:54;;;;;;;12.60;8.80;;;;;;;6.30;93.34;100213.06;4956772;29;20220;-74
2023/01/08 05:07:24;;;;;;;9.55;7.63;;;;;;;6.21;92.27;100206.16;4956919;29;20617;-73
2023/01/08 05:09:54;;;;;;;9.02;7.97;;;;;;;6.28;93.18;100195.47;4939824;29;20213;-71
2023/01/08 05:12:23;;;;;;;10.88;7.80;;;;;;;6.37;91.09;100203.22;4941261;28;20625;-72
2023/01/08 05:14:52;;;;;;;11.27;8.57;;;;;;;6.45;91.35;100192.34;4942132;29;20326;-72
2023/01/08 05:17:21;;;;;;;14.13;7.85;;;;;;;6.64;91.46;100196.22;4956953;28;20725;-74
2023/01/08 05:19:50;;;;;;;11.00;8.85;;;;;;;6.66;89.54;100196.03;4939405;29;20203;-72
2023/01/08 05:22:19;;;;;;;12.35;9.23;;;;;;;6.61;89.30;100193.94;4950354;28;20199;-74
2023/01/08 05:24:49;;;;;;;8.13;7.32;;;;;;;6.46;89.48;100185.13;4956452;28;20216;-73
2023/01/08 05:27:18;;;;;;;9.50;8.25;;;;;;;6.52;89.75;100182.50;4940294;28;20663;-72
2023/01/08 05:29:48;;;;;;;11.73;8.57;;;;;;;6.43;90.50;100180.97;4956548;28;20204;-74
2023/01/08 05:32:18;;;;;;;11.43;8.63;;;;;;;6.49;90.19;100166.72;4971064;29;20248;-73
2023/01/08 05:34:47;;;;;;;11.13;8.18;;;;;;;6.35;90.24;100181.06;4951660;29;20255;-73
2023/01/08 05:37:16;;;;;;;9.88;7.47;;;;;;;6.31;90.83;100179.81;4952087;29;20196;-73
2023/01/08 05:39:46;;;;;;;9.70;8.45;;;;;;;6.54;90.59;100174.22;4942617;28;20203;-73
2023/01/08 05:42:16;;;;;;;8.20;7.40;;;;;;;6.55;89.93;100182.09;4954710;29;20219;-72
2023/01/08 05:44:45;;;;;;;9.65;8.52;;;;;;;6.69;89.09;100180.34;4952068;29;20740;-72
2023/01/08 05:47:14;;;;;;;9.23;8.32;;;;;;;6.66;89.03;100172.69;4937031;29;20287;-72
2023/01/08 05:49:44;;;;;;;9.35;8.45;;;;;;;6.85;88.05;100165.78;4939813;29;20223;-74
2023/01/08 05:52:13;;;;;;;10.52;8.30;;;;;;;6.85;87.35;100171.16;4942028;29;20231;-73
2023/01/08 05:54:42;;;;;;;9.18;8.13;;;;;;;6.79;88.24;100170.09;4955715;29;20235;-73
2023/01/08 05:57:11;;;;;;;8.40;7.50;;;;;;;6.98;87.24;100160.50;4957594;28;20188;-72
2023/01/08 05:59:42;;;;;;;11.88;7.93;;;;;;;7.07;86.78;100167.38;4955642;29;20184;-72
2023/01/08 06:02:11;;;;;;;11.73;7.68;;;;;;;7.00;86.62;100158.47;4938502;29;20649;-71
2023/01/08 06:04:40;;;;;;;7.72;6.90;;;;;;;7.12;87.11;100150.66;4938313;29;20232;-73
2023/01/08 06:07:09;;;;;;;10.15;7.55;;;;;;;7.23;86.12;100150.94;4942336;28;20196;-73
2023/01/08 06:09:39;;;;;;;10.25;9.00;;;;;;;7.10;85.83;100153.56;4938049;29;20200;-72
2023/01/08 06:12:08;;;;;;;7.30;6.60;;;;;;;7.29;86.30;100152.84;4938425;29;20188;-72
2023/01/08 06:14:37;;;;;;;8.35;7.32;;;;;;;7.37;85.68;100158.06;4937852;29;20224;-74
2023/01/08 06:17:08;;;;;;;9.23;7.28;;;;;;;7.50;84.19;100156.47;4938216;29;20282;-73
2023/01/08 06:19:38;;;;;;;8.45;6.75;;;;;;;7.47;84.47;100154.16;4930793;28;20591;-72
2023/01/08 06:22:07;;;;;;;8.65;7.75;;;;;;;7.45;84.82;100157.06;4935799;29;20291;-73
2023/01/08 06:24:36;;;;;;;8.30;7.03;;;;;;;7.36;84.05;100145.63;4947064;28;20255;-73
2023/01/08 06:27:05;;;;;;;9.32;6.70;;;;;;;7.37;84.78;100136.53;4941380;29;20678;-72
2023/01/08 06:29:34;;;;;;;9.52;8.02;;;;;;;7.35;84.46;100140.44;4938563;29;20246;-72
2023/01/08 06:32:03;;;;;;;7.57;5.97;;;;;;;7.45;84.29;100132.84;4957082;28;20188;-71
2023/01/08 06:34:33;;;;;;;10.40;7.40;;;;;;;7.58;83.64;100146.34;4938152;28;20262;-73
2023/01/08 06:37:03;;;;;;;9.75;8.75;;;;;;;7.53;82.98;100143.44;4938419;29;20675;-72
2023/01/08 06:39:32;;;;;;;7.55;6.75;;;;;;;7.51;83.91;100150.03;4955217;29;20689;-72
2023/01/08 06:42:02;;;;;;;8.98;7.03;;;;;;;7.46;83.87;100139.03;4938429;29;20617;-72
2023/01/08 06:44:31;;;;;;;7.07;6.38;;;;;;;7.55;83.65;100146.72;4935287;29;20315;-73
2023/01/08 06:47:00;;;;;;;10.05;7.93;;;;;;;7.46;83.65;100136.34;4932939;29;20292;-74
2023/01/08 06:49:29;;;;;;;10.18;7.75;;;;;;;7.68;83.71;100146.81;4945318;28;20199;-74
2023/01/08 06:51:59;;;;;;;9.18;7.00;;;;;;;7.54;82.99;100139.72;4938030;29;20705;-73
2023/01/08 06:54:29;;;;;;;6.22;5.63;;;;;;;7.61;83.29;100145.94;4954848;29;20239;-72
2023/01/08 06:56:58;;;;;;;7.13;6.32;;;;;;;7.61;82.94;100131.66;4937877;29;20678;-73
2023/01/08 06:59:52;;;;;;;7.53;6.82;;;;;;;7.66;82.97;100138.09;4939391;28;20207;-72
2023/01/08 07:02:21;;;;;;;8.15;7.07;;;;;;;7.68;82.55;100141.44;4935050;29;20220;-73
2023/01/08 07:04:53;;;;;;;8.27;7.03;;;;;;;7.62;83.12;100157.53;4941335;28;20251;-73
2023/01/08 07:07:24;;;;;;;9.57;6.70;;;;;;;7.77;82.46;100147.47;4939427;29;20694;-73
2023/01/08 07:09:53;;;;;;;7.88;6.93;;;;;;;7.63;82.49;100141.19;4939453;29;20644;-72
2023/01/08 07:12:22;;;;;;;8.80;6.95;;;;;;;7.63;82.90;100140.38;4940946;29;20303;-73
2023/01/08 07:14:51;;;;;;;7.03;6.35;;;;;;;7.56;83.20;100144.88;4954421;28;20204;-73
2023/01/08 07:17:20;;;;;;;7.30;4.90;;;;;;;7.64;82.91;100142.03;4954861;29;20279;-73
2023/01/08 07:19:49;;;;;;;8.40;7.60;;;;;;;7.72;82.77;100136.47;4938338;29;20204;-73
2023/01/08 07:22:19;;;;;;;8.20;6.75;;;;;;;7.71;83.12;100146.41;4954814;29;20235;-74
2023/01/08 07:24:49;;;;;;;7.15;6.45;;;;;;;7.72;83.12;100133.75;4943208;29;20604;-71
2023/01/08 07:27:19;;;;;;;7.78;7.03;;;;;;;7.78;83.63;100141.03;4939999;29;20196;-75
2023/01/08 07:29:48;;;;;;;8.88;6.63;;;;;;;7.93;83.17;100144.41;4953887;29;20191;-74
2023/01/08 07:32:17;;;;;;;7.32;5.60;;;;;;;7.99;82.46;100140.88;4947942;28;20750;-73
2023/01/08 07:34:46;;;;;;;7.93;5.00;;;;;;;7.86;82.61;100148.94;4933918;29;20220;-72
2023/01/08 07:37:15;;;;;;;9.68;6.00;;;;;;;7.81;82.32;100144.16;4936650;29;20291;-72
2023/01/08 07:39:44;;;;;;;7.07;6.38;;;;;;;7.83;83.33;100146.66;4936800;29;20227;-74
2023/01/08 07:42:15;;;;;;;6.45;5.55;;;;;;;7.87;83.01;100150.59;4942455;29;20208;-72
2023/01/08 07:44:44;;;;;;;9.75;6.72;;;;;;;7.91;83.03;100156.41;4940520;29;20323;-73
2023/01/08 07:47:13;;;;;;;7.95;6.10;;;;;;;7.88;84.36;100154.97;4936884;29;20196;-75
2023/01/08 07:49:42;;;;;;;5.97;5.43;;;;;;;7.79;85.15;100150.78;4937227;29;20220;-72
2023/01/08 07:52:11;;;;;;;11.90;6.78;;;;;;;7.82;85.89;100158.47;4954233;29;20223;-73
2023/01/08 07:54:41;;;;;;;7.80;6.32;;;;;;;7.93;85.70;100160.56;4937005;29;20318;-72
2023/01/08 07:57:10;;;;;;;6.93;5.68;;;;;;;7.85;87.45;100158.03;4937167;29;20227;-73
2023/01/08 07:59:40;;;;;;;8.77;7.88;;;;;;;7.81;88.02;100156.78;4939621;29;20200;-72
2023/01/08 08:02:10;;;;;;;7.80;6.97;;;;;;;7.88;87.97;100146.03;4937049;29;20222;-73
2023/01/08 08:04:40;;;;;;;7.22;6.07;;;;;;;7.80;89.13;100147.03;4937530;29;20694;-73
2023/01/08 08:07:09;;;;;;;8.27;6.28;;;;;;;7.91;88.58;100145.63;4954046;29;20274;-73
2023/01/08 08:09:38;;;;;;;8.10;6.30;;;;;;;7.89;89.20;100147.72;4936975;29;20193;-72
2023/01/08 08:12:08;;;;;;;9.68;6.05;;;;;;;7.87;89.59;100139.81;4936873;29;20255;-71
2023/01/08 08:14:39;;;;;;;5.75;5.25;;;;;;;7.82;89.96;100136.91;4939633;29;20275;-72
2023/01/08 08:17:08;;;;;;;7.15;5.32;;;;;;;7.91;90.97;100132.16;4938243;29;20203;-72
2023/01/08 08:19:37;;;;;;;7.35;6.20;;;;;;;8.09;90.16;100132.41;4940186;28;20219;-75
2023/01/08 08:22:06;;;;;;;6.93;6.22;;;;;;;7.99;90.04;100132.78;4938710;29;20191;-73
2023/01/08 08:24:35;;;;;;;8.10;6.45;;;;;;;7.86;90.84;100139.00;4961236;28;20304;-73
2023/01/08 08:27:05;;;;;;;7.15;6.45;;;;;;;7.86;91.43;100149.75;4959644;29;20279;-73
2023/01/08 08:29:34;;;;;;;7.40;5.57;;;;;;;7.89;92.44;100145.81;4945088;28;20606;-71
2023/01/08 08:32:04;;;;;;;8.07;5.85;;;;;;;7.91;92.25;100137.53;4942484;29;20203;-71
2023/01/08 08:34:34;;;;;;;7.03;6.38;;;;;;;7.85;93.02;100131.94;4962010;29;20239;-72
2023/01/08 08:37:03;;;;;;;6.63;6.03;;;;;;;7.92;92.29;100123.88;4938946;29;20271;-71
2023/01/08 08:39:32;;;;;;;10.18;6.28;;;;;;;7.84;93.11;100124.88;4941983;28;20263;-73
2023/01/08 08:42:01;;;;;;;7.13;6.35;;;;;;;7.86;93.71;100122.81;4941164;29;20192;-74
2023/01/08 08:44:30;;;;;;;8.45;6.22;;;;;;;7.90;93.80;100111.63;4957935;28;20219;-72
2023/01/08 08:46:59;;;;;;;9.05;6.63;;;;;;;8.04;92.92;100114.16;4962491;28;20223;-73
2023/01/08 08:49:30;;;;;;;10.02;6.65;;;;;;;8.04;92.68;100111.47;4956345;29;20208;-73
2023/01/08 08:51:59;;;;;;;11.50;6.57;;;;;;;8.16;92.07;100107.13;4941034;29;20630;-72
2023/01/08 08:54:28;;;;;;;10.18;5.93;;;;;;;8.43;91.02;100108.00;4942448;28;20270;-72
2023/01/08 08:56:57;;;;;;;6.78;5.43;;;;;;;8.36;90.75;100109.06;4943361;29;20200;-72
2023/01/08 08:59:26;;;;;;;10.80;6.55;;;;;;;8.31;90.75;100115.06;4948648;29;20330;-71
2023/01/08 09:01:55;;;;;;;6.93;6.15;;;;;;;8.36;91.44;100117.16;4964736;29;20224;-72
2023/01/08 09:04:25;;;;;;;8.55;5.75;;;;;;;8.21;91.24;100115.44;4951015;29;20224;-70
2023/01/08 09:06:55;;;;;;;8.43;5.95;;;;;;;8.25;91.51;100114.00;4953600;29;20196;-71
2023/01/08 09:09:24;;;;;;;7.80;5.43;;;;;;;8.29;91.28;100103.63;4955203;29;20620;-71
2023/01/08 09:11:54;;;;;;;7.97;5.60;;;;;;;8.32;90.76;100105.13;4945537;28;20199;-72
2023/01/08 09:14:23;;;;;;;7.33;6.50;;;;;;;8.35;90.06;100093.91;4960753;28;20247;-70
2023/01/08 09:16:52;;;;;;;7.10;5.85;;;;;;;8.32;90.98;100094.34;4958467;28;20455;-71
2023/01/08 09:19:21;;;;;;;7.75;6.35;;;;;;;8.53;90.58;100086.03;4938309;29;20223;-71
2023/01/08 09:21:51;;;;;;;8.20;7.50;;;;;;;8.67;89.08;100071.47;4953740;29;20664;-71
2023/01/08 09:24:21;;;;;;;6.65;5.18;;;;;;;8.54;89.13;100076.91;4940968;28;20239;-71
2023/01/08 09:26:52;;;;;;;7.82;5.60;;;;;;;8.46;89.65;100069.03;4941386;28;20298;-70
2023/01/08 09:29:21;;;;;;;5.53;5.00;;;;;;;8.81;88.45;100078.50;4954198;28;20196;-71
2023/01/08 09:31:51;;;;;;;12.30;5.82;;;;;;;8.84;87.94;100088.06;4963270;28;20187;-70
2023/01/08 09:34:20;;;;;;;7.68;5.93;;;;;;;8.70;87.50;100079.19;4955604;28;20572;-72
2023/01/08 09:36:49;;;;;;;8.43;6.47;;;;;;;8.74;88.25;100085.81;4943082;29;20274;-70
2023/01/08 09:39:18;;;;;;;6.68;5.82;;;;;;;8.78;88.00;100105.91;4938065;29;20196;-72
2023/01/08 09:41:50;;;;;;;6.65;5.88;;;;;;;8.65;88.68;100105.94;4938401;28;20695;-70
2023/01/08 09:44:24;;;;;;;7.80;5.53;;;;;;;8.49;89.99;100095.56;4938101;29;20216;-73
2023/01/08 09:46:56;;;;;;;6.88;6.18;;;;;;;8.46;90.53;100096.81;4941912;28;20221;-71
2023/01/08 09:49:35;;;;;;;6.60;5.40;;;;;;;8.55;91.46;100106.38;4956933;28;20180;-71
2023/01/08 09:52:04;;;;;;;11.23;6.97;;;;;;;8.50;91.07;100099.94;4941640;29;20206;-71
2023/01/08 09:54:33;;;;;;;9.30;6.05;;;;;;;8.48;90.71;100110.91;4939713;29;20219;-73
2023/01/08 09:57:04;;;;;;;7.13;5.53;;;;;;;8.47;90.80;100114.63;4956560;29;20368;-71
2023/01/08 09:59:34;;;;;;;8.48;6.70;;;;;;;8.45;90.89;100118.59;4936939;29;20204;-72
2023/01/08 10:02:04;;;;;;;7.65;6.18;;;;;;;8.43;91.08;100112.56;4937592;28;20557;-70
2023/01/08 10:04:33;;;;;;;6.82;5.80;;;;;;;8.53;90.66;100113.81;4939446;29;20220;-72
2023/01/08 10:07:14;;;;;;;7.70;6.72;;;;;;;8.63;90.50;100110.69;4938191;28;20710;-71
2023/01/08 10:09:43;;;;;;;7.93;5.85;;;;;;;8.47;90.58;100100.34;4950928;28;20290;-71
2023/01/08 10:12:14;;;;;;;6.30;5.22;;;;;;;8.46;90.85;100096.81;4938117;29;20766;-72
2023/01/08 10:14:48;;;;;;;6.68;5.50;;;;;;;8.40;92.25;100096.81;4936789;29;20223;-72
2023/01/08 10:17:27;;;;;;;8.88;6.47;;;;;;;8.52;92.22;100095.16;4939093;28;20255;-72
2023/01/08 10:19:56;;;;;;;6.22;4.93;;;;;;;8.45;92.82;100088.94;4955921;28;20199;-72
2023/01/08 10:22:31;;;;;;;6.63;5.68;;;;;;;8.50;92.85;100081.88;4952123;28;20192;-73
2023/01/08 10:25:07;;;;;;;6.95;5.50;;;;;;;8.43;93.12;100081.03;4957629;28;20255;-72
2023/01/08 10:27:48;;;;;;;7.35;5.53;;;;;;;8.52;93.13;100070.91;4932001;29;20324;-72
2023/01/08 10:30:19;;;;;;;8.13;6.10;;;;;;;8.54;93.26;100072.34;4939613;29;20254;-70
2023/01/08 10:32:52;;;;;;;9.05;5.78;;;;;;;8.45;93.98;100070.91;4938824;29;20287;-73
2023/01/08 10:35:31;;;;;;;6.53;5.50;;;;;;;8.44;95.15;100065.69;4938275;28;20713;-73
2023/01/08 10:38:03;;;;;;;10.20;7.50;;;;;;;8.56;95.68;100054.09;4937668;28;20254;-73
2023/01/08 10:40:37;;;;;;;5.75;4.70;;;;;;;8.43;95.86;100064.03;4953947;28;20200;-72
2023/01/08 10:43:13;;;;;;;7.30;5.55;;;;;;;8.35;96.74;100057.00;4937959;28;20220;-71
2023/01/08 10:45:45;;;;;;;7.97;6.70;;;;;;;8.42;97.49;100051.63;4952552;28;20218;-73
2023/01/08 10:48:18;;;;;;;6.82;5.90;;;;;;;8.48;97.53;100056.16;4935977;29;20200;-74
2023/01/08 10:50:49;;;;;;;6.68;5.47;;;;;;;8.61;97.67;100051.59;4954643;28;20192;-73
2023/01/08 10:53:26;;;;;;;5.85;5.10;;;;;;;8.55;96.90;100057.00;4940284;28;20672;-73
2023/01/08 10:55:59;;;;;;;7.53;6.38;;;;;;;8.68;97.09;100052.41;4953988;28;20243;-73
2023/01/08 10:58:40;;;;;;;8.65;6.05;;;;;;;8.53;97.46;100043.72;4957900;28;20196;-73
2023/01/08 11:01:16;;;;;;;6.50;5.90;;;;;;;8.50;98.61;100060.31;4957347;28;20659;-74
2023/01/08 11:03:59;;;;;;;7.43;6.63;;;;;;;8.46;98.60;100063.63;4955712;28;20255;-72
2023/01/08 11:06:31;;;;;;;11.00;6.82;;;;;;;8.57;98.46;100054.91;4939653;29;20227;-73
2023/01/08 11:09:03;;;;;;;8.48;6.88;;;;;;;8.65;97.46;100049.31;4937759;29;20200;-72
2023/01/08 11:11:35;;;;;;;7.45;6.57;;;;;;;8.59;97.92;100047.44;4957367;28;20563;-72
2023/01/08 11:14:16;;;;;;;7.00;6.35;;;;;;;8.55;97.59;100035.41;4940407;29;20208;-73
2023/01/08 11:16:48;;;;;;;8.15;5.85;;;;;;;8.54;97.83;100028.38;4935972;29;20251;-72
2023/01/08 11:19:27;;;;;;;8.32;6.85;;;;;;;8.79;97.08;100032.06;4934998;29;20213;-72
2023/01/08 11:21:59;;;;;;;9.38;6.88;;;;;;;8.86;96.11;100027.44;4947831;29;20206;-73
2023/01/08 11:24:31;;;;;;;7.53;5.93;;;;;;;8.91;94.65;100027.66;4954325;28;20227;-74
2023/01/08 11:27:23;;;;;;;9.68;6.20;;;;;;;8.87;94.60;100028.28;4943565;28;20591;-73
2023/01/08 11:30:03;;;;;;;7.47;6.35;;;;;;;8.97;94.60;100017.88;4951872;28;20303;-72
2023/01/08 11:32:46;;;;;;;6.43;5.50;;;;;;;8.97;94.02;100004.38;4951542;28;20684;-70
2023/01/08 11:39:03;;;;;;;6.32;5.47;;;;;;;9.32;91.85;99994.06;4942540;29;20605;-72
2023/01/08 11:41:56;;;;;;;9.43;6.63;;;;;;;9.22;91.51;99991.00;4932846;28;20197;-71
2023/01/08 11:44:37;;;;;;;8.48;7.25;;;;;;;9.27;91.54;99988.47;4935923;29;20678;-73
2023/01/08 11:47:45;;;;;;;7.78;6.90;;;;;;;9.15;91.75;99991.84;4950401;28;20308;-73
2023/01/08 11:50:22;;;;;;;8.03;7.23;;;;;;;9.20;92.34;100006.59;4957079;28;20730;-75
2023/01/08 11:53:06;;;;;;;6.77;6.17;;;;;;;9.12;91.79;99989.59;4941194;29;20439;-74
2023/01/08 11:56:15;;;;;;;7.83;6.90;;;;;;;9.18;91.81;99989.78;4938137;29;20438;-75
2023/01/08 12:02:34;;;;;;;8.33;4.70;;;;;;;9.20;90.96;99982.31;4958183;28;20215;-76
2023/01/08 12:05:37;;;;;;;8.17;5.37;;;;;;;9.32;90.61;99988.66;4941494;29;20530;-76